createdAt,value
2023-03-18T00:01:51.826Z,4.00
2023-03-18T00:04:40.712Z,3.73
2023-03-18T00:07:28.142Z,3.87
2023-03-18T00:10:16.697Z,3.60
2023-03-18T00:13:04.661Z,3.63
2023-03-18T00:15:52.785Z,4.33
2023-03-18T00:18:40.364Z,4.47
2023-03-18T00:21:28.081Z,3.70
2023-03-18T00:24:16.695Z,3.40
2023-03-18T00:27:04.310Z,3.37
2023-03-18T00:29:51.822Z,4.23
2023-03-18T00:32:39.589Z,3.50
2023-03-18T00:35:28.061Z,4.23
2023-03-18T00:38:20.811Z,3.50
2023-03-18T00:41:11.657Z,3.63
2023-03-18T00:43:59.587Z,3.43
2023-03-18T00:46:47.088Z,4.00
2023-03-18T00:49:34.989Z,4.00
2023-03-18T00:52:23.184Z,3.80
2023-03-18T00:55:11.024Z,4.40
2023-03-18T00:57:58.442Z,3.90
2023-03-18T01:00:45.937Z,4.00
2023-03-18T01:03:33.906Z,4.07
2023-03-18T01:06:22.895Z,4.20
2023-03-18T01:09:12.053Z,4.40
2023-03-18T01:11:59.578Z,4.37
2023-03-18T01:14:48.118Z,4.43
2023-03-18T01:17:35.569Z,4.03
2023-03-18T01:20:23.719Z,4.30
2023-03-18T01:23:12.636Z,4.13
2023-03-18T01:26:00.122Z,3.90
2023-03-18T01:28:48.019Z,3.90
2023-03-18T01:31:35.659Z,4.30
2023-03-18T01:34:23.801Z,3.97
2023-03-18T01:37:11.690Z,4.13
2023-03-18T01:39:59.116Z,4.17
2023-03-18T01:42:49.560Z,4.13
2023-03-18T01:45:37.277Z,4.03
2023-03-18T01:48:26.355Z,4.47
2023-03-18T01:51:14.288Z,4.30
2023-03-18T01:54:04.216Z,4.47
2023-03-18T01:56:51.750Z,4.50
2023-03-18T01:59:41.328Z,4.30
2023-03-18T02:02:29.187Z,4.63
2023-03-18T02:05:18.977Z,4.47
2023-03-18T02:08:06.725Z,4.40
2023-03-18T02:10:54.120Z,4.43
2023-03-18T02:13:42.823Z,4.13
2023-03-18T02:16:40.663Z,4.30
2023-03-18T02:19:28.392Z,4.73
2023-03-18T02:22:22.542Z,4.50
2023-03-18T02:25:27.786Z,4.30
2023-03-18T02:28:20.088Z,4.60
2023-03-18T02:31:11.716Z,4.20
2023-03-18T02:33:59.856Z,5.10
2023-03-18T02:36:47.575Z,4.40
2023-03-18T02:39:35.648Z,4.23
2023-03-18T02:42:32.610Z,4.03
2023-03-18T02:45:33.289Z,4.13
2023-03-18T02:48:21.384Z,4.30
2023-03-18T02:51:08.930Z,3.97
2023-03-18T02:53:59.938Z,4.17
2023-03-18T02:56:47.692Z,4.50
2023-03-18T02:59:35.204Z,4.03
2023-03-18T03:02:22.649Z,4.30
2023-03-18T03:05:10.583Z,4.00
2023-03-18T03:07:58.038Z,4.37
2023-03-18T03:10:46.265Z,4.27
2023-03-18T03:13:33.755Z,3.73
2023-03-18T03:16:21.217Z,4.17
2023-03-18T03:19:09.002Z,4.10
2023-03-18T03:21:57.136Z,4.30
2023-03-18T03:24:45.058Z,4.00
2023-03-18T03:27:32.833Z,4.10
2023-03-18T03:30:20.524Z,4.23
2023-03-18T03:33:08.423Z,3.63
2023-03-18T03:35:57.993Z,4.20
2023-03-18T03:38:45.573Z,4.43
2023-03-18T03:41:32.953Z,4.17
2023-03-18T03:44:20.373Z,4.10
2023-03-18T03:47:08.390Z,4.50
2023-03-18T03:49:56.243Z,4.50
2023-03-18T03:52:43.625Z,4.27
2023-03-18T03:55:31.108Z,5.40
2023-03-18T03:58:18.612Z,5.43
2023-03-18T04:01:06.509Z,5.67
2023-03-18T04:03:54.004Z,6.70
2023-03-18T04:06:41.536Z,6.10
2023-03-18T04:09:29.170Z,8.10
2023-03-18T04:12:19.500Z,9.43
2023-03-18T04:15:07.526Z,7.50
2023-03-18T04:17:55.451Z,6.33
2023-03-18T04:20:42.846Z,5.43
2023-03-18T04:23:30.237Z,4.90
2023-03-18T04:26:17.652Z,3.67
2023-03-18T04:29:05.132Z,4.43
2023-03-18T04:31:52.686Z,4.60
2023-03-18T04:34:40.309Z,4.40
2023-03-18T04:37:27.738Z,4.37
2023-03-18T04:40:15.466Z,4.40
2023-03-18T04:43:02.898Z,4.03
2023-03-18T04:45:50.349Z,4.57
2023-03-18T04:48:37.749Z,4.77
2023-03-18T04:51:27.306Z,4.40
2023-03-18T04:54:14.801Z,5.00
2023-03-18T04:57:02.292Z,4.23
2023-03-18T04:59:49.679Z,5.10
2023-03-18T05:02:37.024Z,5.00
2023-03-18T05:05:25.096Z,4.00
2023-03-18T05:08:12.838Z,4.67
2023-03-18T05:11:00.232Z,4.87
2023-03-18T05:13:47.928Z,4.83
2023-03-18T05:16:36.050Z,5.43
2023-03-18T05:19:25.207Z,4.70
2023-03-18T05:22:13.355Z,5.30
2023-03-18T05:25:01.597Z,4.97
2023-03-18T05:27:49.561Z,5.40
2023-03-18T05:30:39.502Z,5.43
2023-03-18T05:33:27.007Z,5.73
2023-03-18T05:36:14.860Z,5.63
2023-03-18T05:39:02.272Z,5.87
2023-03-18T05:41:49.773Z,5.90
2023-03-18T05:44:37.238Z,6.03
2023-03-18T05:47:24.642Z,6.37
2023-03-18T05:50:13.344Z,5.97
2023-03-18T05:53:01.022Z,6.33
2023-03-18T05:55:48.745Z,6.80
2023-03-18T05:58:36.184Z,20.50
2023-03-18T06:01:25.988Z,23.37
2023-03-18T06:04:13.653Z,14.87
2023-03-18T06:07:01.736Z,8.30
2023-03-18T06:09:49.924Z,7.43
2023-03-18T06:12:37.335Z,7.27
2023-03-18T06:15:25.661Z,6.97
2023-03-18T06:18:13.524Z,7.47
2023-03-18T06:21:01.131Z,7.17
2023-03-18T06:23:48.607Z,7.47
2023-03-18T06:26:35.970Z,7.80
2023-03-18T06:29:23.832Z,8.53
2023-03-18T06:32:11.297Z,7.97
2023-03-18T06:34:58.694Z,8.40
2023-03-18T06:37:46.100Z,8.40
2023-03-18T06:40:33.502Z,8.97
2023-03-18T06:43:20.912Z,8.83
2023-03-18T06:46:08.549Z,9.60
2023-03-18T06:48:55.926Z,9.40
2023-03-18T06:51:43.780Z,9.87
2023-03-18T06:54:31.174Z,9.67
2023-03-18T06:57:18.708Z,9.80
2023-03-18T07:00:06.629Z,9.73
2023-03-18T07:02:54.051Z,10.27
2023-03-18T07:05:42.120Z,33.50
2023-03-18T07:08:29.481Z,19.87
2023-03-18T07:11:16.854Z,19.53
2023-03-18T07:14:05.759Z,19.63
2023-03-18T07:16:53.160Z,12.70
2023-03-18T07:19:41.754Z,10.87
2023-03-18T07:22:29.206Z,12.30
2023-03-18T07:25:16.588Z,12.33
2023-03-18T07:28:05.644Z,13.33
2023-03-18T07:30:54.252Z,13.40
2023-03-18T07:33:41.812Z,16.43
2023-03-18T07:36:29.257Z,12.77
2023-03-18T07:39:17.069Z,17.03
2023-03-18T07:42:04.529Z,12.50
2023-03-18T07:44:52.226Z,15.53
2023-03-18T07:47:39.714Z,12.43
2023-03-18T07:50:27.879Z,12.70
2023-03-18T07:53:16.760Z,14.63
2023-03-18T07:56:04.587Z,12.93
2023-03-18T07:58:52.770Z,13.67
2023-03-18T08:01:40.196Z,10.23
2023-03-18T08:04:27.806Z,10.47
2023-03-18T08:07:15.256Z,10.30
2023-03-18T08:10:02.704Z,9.70
2023-03-18T08:12:53.507Z,10.33
2023-03-18T08:15:41.759Z,9.50
2023-03-18T08:18:29.250Z,9.90
2023-03-18T08:21:16.638Z,9.87
2023-03-18T08:24:04.178Z,9.87
2023-03-18T08:26:51.598Z,10.10
2023-03-18T08:29:39.063Z,10.03
2023-03-18T08:32:27.897Z,9.47
2023-03-18T08:35:15.410Z,10.33
2023-03-18T08:38:04.160Z,9.00
2023-03-18T08:40:51.951Z,8.40
2023-03-18T08:43:39.744Z,8.73
2023-03-18T08:46:27.159Z,9.97
2023-03-18T08:49:14.596Z,9.57
2023-03-18T08:52:02.042Z,9.77
2023-03-18T08:54:49.594Z,9.60
2023-03-18T08:57:37.816Z,9.80
2023-03-18T09:00:25.665Z,9.50
2023-03-18T09:03:13.704Z,11.03
2023-03-18T09:06:01.783Z,11.00
2023-03-18T09:08:49.220Z,11.07
2023-03-18T09:11:37.306Z,10.80
2023-03-18T09:14:24.684Z,11.10
2023-03-18T09:17:12.567Z,10.60
2023-03-18T09:20:00.143Z,11.17
2023-03-18T09:22:47.643Z,10.93
2023-03-18T09:25:35.350Z,10.47
2023-03-18T09:28:22.822Z,10.77
2023-03-18T09:31:10.353Z,10.10
2023-03-18T09:33:58.599Z,10.53
2023-03-18T09:36:50.995Z,10.63
2023-03-18T09:39:38.411Z,11.40
2023-03-18T09:42:37.829Z,10.40
2023-03-18T09:45:28.785Z,10.80
2023-03-18T09:48:35.656Z,10.57
2023-03-18T09:51:34.925Z,10.27
2023-03-18T09:54:41.349Z,10.43
2023-03-18T09:57:37.497Z,10.37
2023-03-18T10:00:27.810Z,11.43
2023-03-18T10:03:24.515Z,10.93
2023-03-18T10:06:16.948Z,11.57
2023-03-18T10:09:10.590Z,10.83
2023-03-18T10:12:08.075Z,10.33
2023-03-18T10:15:02.332Z,11.30
2023-03-18T10:17:57.916Z,10.50
2023-03-18T10:20:50.321Z,10.90
2023-03-18T10:23:44.804Z,11.73
2023-03-18T10:26:32.289Z,11.07
2023-03-18T10:29:38.529Z,10.73
2023-03-18T10:32:49.061Z,11.13
2023-03-18T10:35:49.886Z,10.63
2023-03-18T10:38:43.326Z,11.20
2023-03-18T10:41:32.555Z,10.37
2023-03-18T10:44:28.828Z,9.77
2023-03-18T10:47:23.929Z,9.77
2023-03-18T10:50:17.734Z,8.83
2023-03-18T10:53:18.504Z,8.77
2023-03-18T10:56:08.172Z,8.40
2023-03-18T10:58:57.347Z,8.67
2023-03-18T11:01:47.980Z,8.93
2023-03-18T11:04:54.439Z,8.70
2023-03-18T11:07:56.167Z,8.43
2023-03-18T11:10:48.148Z,8.50
2023-03-18T11:13:35.724Z,7.87
2023-03-18T11:16:33.021Z,7.77
2023-03-18T11:19:20.872Z,7.20
2023-03-18T11:22:12.073Z,6.73
2023-03-18T11:25:02.548Z,6.97
2023-03-18T11:27:52.194Z,6.20
2023-03-18T11:30:48.313Z,6.23
2023-03-18T11:33:37.543Z,6.00
2023-03-18T11:36:27.835Z,5.87
2023-03-18T11:39:16.505Z,6.50
2023-03-18T11:42:06.157Z,6.10
2023-03-18T11:45:01.965Z,6.00
2023-03-18T11:47:49.377Z,6.33
2023-03-18T11:50:43.320Z,5.80
2023-03-18T11:53:49.708Z,5.70
2023-03-18T11:56:44.336Z,6.00
2023-03-18T11:59:31.746Z,5.20
2023-03-18T12:02:24.823Z,6.40
2023-03-18T12:05:12.304Z,5.33
2023-03-18T12:08:18.153Z,5.60
2023-03-18T12:11:24.718Z,5.43
2023-03-18T12:14:27.371Z,5.17
2023-03-18T12:17:33.971Z,5.67
2023-03-18T12:20:35.373Z,5.10
2023-03-18T12:23:42.222Z,5.13
2023-03-18T12:26:50.857Z,5.67
2023-03-18T12:29:43.661Z,5.13
2023-03-18T12:32:50.740Z,5.53
2023-03-18T12:35:45.780Z,4.47
2023-03-18T12:38:52.134Z,4.93
2023-03-18T12:42:02.564Z,4.57
2023-03-18T12:45:00.863Z,5.33
2023-03-18T12:47:50.525Z,5.00
2023-03-18T12:50:40.686Z,4.70
2023-03-18T12:53:33.803Z,5.17
2023-03-18T12:56:23.526Z,5.03
2023-03-18T12:59:22.969Z,6.05
2023-03-18T13:02:29.529Z,5.22
2023-03-18T13:05:43.039Z,4.95
2023-03-18T13:08:44.947Z,5.80
2023-03-18T13:11:36.077Z,6.10
2023-03-18T13:14:37.609Z,5.83
2023-03-18T13:17:37.089Z,5.23
2023-03-18T13:20:27.725Z,5.67
2023-03-18T13:23:21.193Z,5.50
2023-03-18T13:26:22.150Z,5.50
2023-03-18T13:29:18.880Z,4.90
2023-03-18T13:32:15.344Z,4.90
2023-03-18T13:35:22.446Z,5.13
2023-03-18T13:38:17.251Z,5.60
2023-03-18T13:41:14.835Z,4.97
2023-03-18T13:44:11.547Z,5.00
2023-03-18T13:47:01.392Z,4.60
2023-03-18T13:49:49.689Z,5.13
2023-03-18T13:52:40.109Z,5.70
2023-03-18T13:55:27.629Z,5.40
2023-03-18T13:58:20.390Z,5.23
2023-03-18T14:01:17.472Z,4.87
2023-03-18T14:04:22.545Z,4.73
2023-03-18T14:07:13.574Z,5.10
2023-03-18T14:10:17.178Z,4.57
2023-03-18T14:13:26.241Z,4.70
2023-03-18T14:16:14.859Z,5.40
2023-03-18T14:19:03.216Z,5.40
2023-03-18T14:21:53.494Z,5.13
2023-03-18T14:24:40.984Z,5.13
2023-03-18T14:27:28.352Z,5.23
2023-03-18T14:30:40.527Z,5.27
2023-03-18T14:33:33.379Z,4.93
2023-03-18T14:36:29.103Z,5.43
2023-03-18T14:39:30.749Z,4.27
2023-03-18T14:42:33.072Z,5.00
2023-03-18T14:45:24.402Z,5.03
2023-03-18T14:48:24.310Z,5.07
2023-03-18T14:51:14.426Z,4.90
2023-03-18T14:54:01.973Z,4.67
2023-03-18T14:56:53.767Z,4.70
2023-03-18T14:59:41.429Z,4.57
2023-03-18T15:02:37.357Z,4.93
2023-03-18T15:05:25.696Z,4.57
2023-03-18T15:08:19.476Z,5.10
2023-03-18T15:11:07.482Z,4.60
2023-03-18T15:13:56.595Z,4.63
2023-03-18T15:16:51.599Z,4.43
2023-03-18T15:19:38.968Z,5.10
2023-03-18T15:22:28.468Z,6.13
2023-03-18T15:25:18.429Z,5.33
2023-03-18T15:28:06.745Z,5.53
2023-03-18T15:30:55.897Z,6.57
2023-03-18T15:33:46.471Z,6.47
2023-03-18T15:36:41.187Z,6.60
2023-03-18T15:39:47.307Z,6.63
2023-03-18T15:42:35.118Z,7.00
2023-03-18T15:45:25.771Z,7.03
2023-03-18T15:48:21.630Z,6.70
2023-03-18T15:51:23.235Z,6.43
2023-03-18T15:54:28.037Z,6.90
2023-03-18T15:57:24.243Z,7.90
2023-03-18T16:00:12.001Z,7.00
2023-03-18T16:03:00.264Z,7.07
2023-03-18T16:05:47.635Z,7.53
2023-03-18T16:08:35.123Z,7.77
2023-03-18T16:11:24.224Z,6.93
2023-03-18T16:14:15.942Z,7.40
2023-03-18T16:17:03.771Z,7.80
2023-03-18T16:19:55.109Z,8.40
2023-03-18T16:22:42.484Z,8.73
2023-03-18T16:25:29.901Z,9.47
2023-03-18T16:28:18.948Z,9.43
2023-03-18T16:31:06.977Z,7.90
2023-03-18T16:33:56.125Z,9.47
2023-03-18T16:36:44.295Z,9.80
2023-03-18T16:39:35.113Z,9.03
2023-03-18T16:42:25.700Z,8.80
2023-03-18T16:45:18.223Z,8.30
2023-03-18T16:48:07.382Z,7.30
2023-03-18T16:50:57.155Z,7.07
2023-03-18T16:53:45.335Z,6.93
2023-03-18T16:56:32.749Z,7.00
2023-03-18T16:59:20.567Z,6.57
2023-03-18T17:02:17.697Z,6.83
2023-03-18T17:05:05.487Z,6.53
2023-03-18T17:07:53.008Z,6.90
2023-03-18T17:10:41.885Z,7.13
2023-03-18T17:13:30.381Z,7.43
2023-03-18T17:16:20.066Z,7.53
2023-03-18T17:19:10.277Z,8.47
2023-03-18T17:21:57.693Z,8.30
2023-03-18T17:24:45.059Z,11.70
2023-03-18T17:27:40.515Z,9.23
2023-03-18T17:30:34.277Z,8.87
2023-03-18T17:33:24.508Z,8.13
2023-03-18T17:36:12.438Z,9.07
2023-03-18T17:39:00.147Z,7.67
2023-03-18T17:41:47.600Z,7.87
2023-03-18T17:44:35.028Z,7.97
2023-03-18T17:47:22.727Z,10.50
2023-03-18T17:50:14.710Z,10.30
2023-03-18T17:53:02.118Z,10.33
2023-03-18T17:55:49.722Z,9.33
2023-03-18T17:58:37.202Z,7.77
2023-03-18T18:01:29.300Z,6.17
2023-03-18T18:04:18.517Z,7.23
2023-03-18T18:07:10.205Z,8.10
2023-03-18T18:09:59.171Z,7.53
2023-03-18T18:12:48.590Z,7.33
2023-03-18T18:15:37.274Z,8.73
2023-03-18T18:18:29.341Z,8.40
2023-03-18T18:21:18.040Z,9.73
2023-03-18T18:24:13.013Z,8.97
2023-03-18T18:27:00.500Z,7.37
2023-03-18T18:29:48.081Z,7.33
2023-03-18T18:32:36.056Z,8.83
2023-03-18T18:35:24.964Z,8.33
2023-03-18T18:38:13.233Z,8.97
2023-03-18T18:41:01.467Z,10.13
2023-03-18T18:43:48.878Z,12.50
2023-03-18T18:46:36.450Z,9.73
2023-03-18T18:49:24.860Z,10.67
2023-03-18T18:52:12.431Z,9.53
2023-03-18T18:55:00.281Z,10.40
2023-03-18T18:57:48.164Z,9.40
2023-03-18T19:00:35.694Z,11.70
2023-03-18T19:03:24.253Z,11.03
2023-03-18T19:06:20.217Z,9.23
2023-03-18T19:09:13.840Z,10.30
2023-03-18T19:12:01.220Z,9.57
2023-03-18T19:14:48.707Z,10.80
2023-03-18T19:17:36.111Z,9.83
2023-03-18T19:20:28.161Z,9.53
2023-03-18T19:23:35.800Z,9.87
2023-03-18T19:26:23.196Z,10.03
2023-03-18T19:29:11.019Z,9.40
2023-03-18T19:31:58.655Z,11.47
2023-03-18T19:34:46.769Z,10.77
2023-03-18T19:37:35.711Z,9.60
2023-03-18T19:40:29.450Z,10.23
2023-03-18T19:43:18.687Z,9.20
2023-03-18T19:46:06.231Z,12.57
2023-03-18T19:48:53.637Z,10.70
2023-03-18T19:51:41.479Z,12.47
2023-03-18T19:54:33.591Z,13.07
2023-03-18T19:57:23.293Z,11.87
2023-03-18T20:00:21.951Z,12.40
2023-03-18T20:03:13.772Z,13.80
2023-03-18T20:06:01.850Z,12.57
2023-03-18T20:08:49.272Z,14.47
2023-03-18T20:11:37.295Z,14.30
2023-03-18T20:14:30.488Z,14.20
2023-03-18T20:17:31.712Z,12.67
2023-03-18T20:20:20.295Z,16.30
2023-03-18T20:23:12.164Z,13.50
2023-03-18T20:25:59.711Z,12.90
2023-03-18T20:28:48.974Z,12.37
2023-03-18T20:31:36.842Z,11.90
2023-03-18T20:34:24.305Z,12.60
2023-03-18T20:37:16.926Z,12.50
2023-03-18T20:40:05.356Z,15.23
2023-03-18T20:42:53.015Z,14.03
2023-03-18T20:45:40.745Z,13.97
2023-03-18T20:48:28.256Z,15.17
2023-03-18T20:51:20.629Z,15.77
2023-03-18T20:54:18.982Z,16.57
2023-03-18T20:57:06.827Z,15.90
2023-03-18T20:59:54.213Z,15.87
2023-03-18T21:02:42.495Z,15.00
2023-03-18T21:05:29.935Z,15.10
2023-03-18T21:08:19.479Z,13.70
2023-03-18T21:11:07.659Z,13.37
2023-03-18T21:13:55.161Z,13.10
2023-03-18T21:16:42.716Z,13.53
2023-03-18T21:19:30.140Z,13.67
2023-03-18T21:22:21.434Z,11.93
2023-03-18T21:25:15.073Z,13.10
2023-03-18T21:28:03.436Z,15.57
2023-03-18T21:30:52.112Z,13.00
2023-03-18T21:33:39.605Z,12.47
2023-03-18T21:36:27.048Z,13.13
2023-03-18T21:39:14.519Z,13.00
2023-03-18T21:42:01.937Z,12.90
2023-03-18T21:44:49.318Z,12.27
2023-03-18T21:47:36.743Z,12.17
2023-03-18T21:50:26.063Z,11.67
2023-03-18T21:53:15.259Z,12.50
2023-03-18T21:56:04.980Z,12.67
2023-03-18T21:58:52.370Z,12.30
2023-03-18T22:01:40.017Z,12.43
2023-03-18T22:04:27.537Z,13.00
2023-03-18T22:07:15.358Z,12.77
2023-03-18T22:10:03.013Z,12.40
2023-03-18T22:12:50.438Z,12.70
2023-03-18T22:15:39.353Z,12.90
2023-03-18T22:18:26.853Z,12.13
2023-03-18T22:21:14.197Z,12.30
2023-03-18T22:24:01.530Z,13.20
2023-03-18T22:26:48.910Z,13.30
2023-03-18T22:29:36.245Z,12.70
2023-03-18T22:32:26.258Z,12.97
2023-03-18T22:35:13.675Z,13.00
2023-03-18T22:38:01.116Z,12.17
2023-03-18T22:40:50.465Z,13.23
2023-03-18T22:43:38.082Z,13.87
2023-03-18T22:46:25.604Z,12.83
2023-03-18T22:49:12.999Z,14.10
2023-03-18T22:52:00.371Z,14.80
2023-03-18T22:54:48.307Z,13.10
2023-03-18T22:57:35.701Z,15.43
2023-03-18T23:00:25.829Z,15.40
2023-03-18T23:03:15.093Z,17.43
2023-03-18T23:06:03.472Z,17.17
2023-03-18T23:08:50.894Z,16.03
2023-03-18T23:11:38.535Z,15.97
2023-03-18T23:14:25.855Z,17.20
2023-03-18T23:17:17.772Z,16.53
2023-03-18T23:20:05.664Z,16.10
2023-03-18T23:22:52.994Z,15.37
2023-03-18T23:25:41.405Z,14.50
2023-03-18T23:28:28.772Z,15.30
2023-03-18T23:31:16.924Z,15.80
2023-03-18T23:34:04.314Z,15.77
2023-03-18T23:36:51.897Z,14.37
2023-03-18T23:39:42.986Z,14.30
2023-03-18T23:42:30.432Z,14.93
2023-03-18T23:45:17.869Z,15.83
2023-03-18T23:48:05.631Z,16.33
2023-03-18T23:50:53.656Z,16.37
2023-03-18T23:53:41.322Z,16.13
2023-03-18T23:56:28.773Z,15.83
2023-03-18T23:59:16.174Z,15.03
